Terminal Aerodrome Forecast
Issued by NWS

Home | Current Version | Previous Version | Text Only | Print | Product List | Glossary On
Versions: 1 2 3 4 5 6 7 8 9 10 11 12
000
FTUS43 KPAH 252320
TAFCGI
TAF
KCGI 252320Z 2600/2624 17011KT P6SM SCT250
     FM260500 18011KT P6SM SCT060 BKN250 WS020/20040KT
     FM260900 17013G21KT P6SM BKN035
     FM261100 18014G22KT P6SM BKN025
     FM261400 18015G23KT P6SM BKN015
     FM262200 18015G25KT P6SM VCTS OVC015CB=

USA.gov is the U.S. government's official web portal to all federal, state and local government web resources and services.